Time;durP1;ratioP1;P1;durP2;ratioP2;P2;SDS_P1;SDS_P2;PMS_P1;PMS_P2;Temp;Humidity;BMP_temperature;BMP_pressure;BME280_temperature;BME280_humidity;BME280_pressure;Samples;Min_cycle;Max_cycle;Signal;HPM_P1;HPM_P2
2023/11/09 00:01:37;;;;;;;4.43;1.92;;;11.80;99.90;;;;;;4996722;28;20107;-38
2023/11/09 00:04:03;;;;;;;2.70;1.63;;;11.80;99.90;;;;;;5014250;28;20145;-37
2023/11/09 00:06:29;;;;;;;1.98;1.55;;;11.80;99.90;;;;;;5013967;28;20022;-38
2023/11/09 00:08:55;;;;;;;3.08;1.90;;;11.80;99.90;;;;;;5014040;28;20060;-37
2023/11/09 00:11:21;;;;;;;2.72;1.70;;;11.80;99.90;;;;;;5014095;28;20022;-38
2023/11/09 00:13:47;;;;;;;3.50;1.88;;;11.80;99.90;;;;;;5013968;28;20022;-38
2023/11/09 00:16:13;;;;;;;2.63;1.85;;;11.80;99.90;;;;;;5013934;28;20037;-38
2023/11/09 00:18:39;;;;;;;4.68;1.50;;;11.80;99.90;;;;;;5013117;28;20040;-38
2023/11/09 00:21:05;;;;;;;2.78;1.70;;;11.80;99.90;;;;;;5014145;28;20387;-38
2023/11/09 00:23:31;;;;;;;2.28;1.67;;;11.80;99.90;;;;;;5013871;28;20108;-37
2023/11/09 00:25:58;;;;;;;2.22;1.63;;;11.70;99.90;;;;;;5014218;28;20080;-39
2023/11/09 00:28:24;;;;;;;1.95;1.52;;;11.80;99.90;;;;;;5013465;28;20022;-38
2023/11/09 00:30:50;;;;;;;2.38;1.60;;;11.70;99.90;;;;;;5013714;28;20100;-38
2023/11/09 00:33:16;;;;;;;2.47;1.55;;;11.80;99.90;;;;;;5013806;28;20064;-38
2023/11/09 00:35:43;;;;;;;2.92;1.63;;;11.80;99.90;;;;;;5013534;28;20026;-38
2023/11/09 00:38:14;;;;;;;2.58;1.70;;;11.80;99.90;;;;;;5013434;28;20569;-38
2023/11/09 00:40:40;;;;;;;2.60;1.70;;;11.80;99.90;;;;;;5013508;28;20033;-38
2023/11/09 00:43:06;;;;;;;3.05;1.70;;;11.70;99.90;;;;;;5013540;28;20022;-38
2023/11/09 00:45:34;;;;;;;3.35;1.50;;;11.70;99.90;;;;;;5013311;28;20559;-38
2023/11/09 00:48:00;;;;;;;1.77;1.35;;;11.70;99.90;;;;;;5013172;28;20156;-38
2023/11/09 00:50:26;;;;;;;2.78;1.40;;;11.70;99.90;;;;;;5013307;28;20018;-38
2023/11/09 00:52:52;;;;;;;2.80;1.75;;;11.70;99.90;;;;;;5013248;28;20434;-38
2023/11/09 00:55:17;;;;;;;2.40;1.60;;;11.70;99.90;;;;;;5013042;28;20025;-38
2023/11/09 00:57:43;;;;;;;4.28;1.70;;;11.70;99.90;;;;;;5012870;28;20565;-38
2023/11/09 01:00:09;;;;;;;4.20;1.73;;;11.70;99.90;;;;;;5013167;28;20068;-39
2023/11/09 01:02:38;;;;;;;1.65;1.15;;;11.70;99.90;;;;;;5013121;28;20018;-38
2023/11/09 01:05:09;;;;;;;3.30;1.58;;;11.70;99.90;;;;;;4995298;28;20025;-39
2023/11/09 01:07:35;;;;;;;2.63;1.70;;;11.70;99.90;;;;;;5012990;28;20018;-40
2023/11/09 01:10:00;;;;;;;2.75;1.50;;;11.70;99.90;;;;;;5012901;28;20507;-38
2023/11/09 01:12:27;;;;;;;1.98;1.40;;;11.70;99.90;;;;;;5012889;28;20036;-38
2023/11/09 01:14:52;;;;;;;1.90;1.42;;;11.70;99.90;;;;;;5012835;28;20018;-38
2023/11/09 01:17:18;;;;;;;2.05;1.60;;;11.70;99.90;;;;;;5012590;28;20064;-38
2023/11/09 01:19:44;;;;;;;3.00;1.40;;;11.70;99.90;;;;;;5013114;28;20026;-38
2023/11/09 01:22:09;;;;;;;3.42;1.60;;;11.70;99.90;;;;;;5012697;28;20407;-38
2023/11/09 01:24:35;;;;;;;3.45;1.80;;;11.70;99.90;;;;;;5012575;28;20037;-38
2023/11/09 01:27:01;;;;;;;2.25;1.48;;;11.70;99.90;;;;;;5012985;28;20029;-38
2023/11/09 01:29:26;;;;;;;3.10;1.75;;;11.70;99.90;;;;;;5011653;28;20511;-38
2023/11/09 01:31:54;;;;;;;2.35;1.35;;;11.70;99.90;;;;;;5012599;28;20088;-38
2023/11/09 01:34:20;;;;;;;3.00;1.38;;;11.60;99.90;;;;;;5012508;28;20101;-37
2023/11/09 01:36:46;;;;;;;3.90;1.40;;;11.70;99.90;;;;;;5012395;28;20018;-37
2023/11/09 01:39:12;;;;;;;3.50;1.65;;;11.70;99.90;;;;;;5012790;28;20036;-37
2023/11/09 01:41:38;;;;;;;2.67;1.70;;;11.60;99.90;;;;;;5012446;28;20032;-37
2023/11/09 01:44:04;;;;;;;1.90;1.50;;;11.60;99.90;;;;;;5012424;28;20030;-38
2023/11/09 01:46:31;;;;;;;2.95;1.60;;;11.60;99.90;;;;;;5012238;28;20022;-37
2023/11/09 01:48:58;;;;;;;2.45;1.70;;;11.60;99.90;;;;;;5012164;28;20438;-38
2023/11/09 01:51:25;;;;;;;2.72;1.52;;;11.60;99.90;;;;;;5012255;28;20022;-38
2023/11/09 01:53:52;;;;;;;2.25;1.50;;;11.60;99.90;;;;;;5012237;28;20101;-38
2023/11/09 01:56:19;;;;;;;1.88;1.52;;;11.60;99.90;;;;;;5012114;28;20084;-38
2023/11/09 01:58:46;;;;;;;2.42;1.58;;;11.60;99.90;;;;;;5051605;23;20394;-44
2023/11/09 02:01:13;;;;;;;2.50;1.60;;;11.60;99.90;;;;;;5051653;28;20017;-44
2023/11/09 02:03:43;;;;;;;3.30;1.77;;;11.60;99.90;;;;;;5051693;28;20044;-43
2023/11/09 02:06:09;;;;;;;3.13;1.60;;;11.60;99.90;;;;;;5052674;28;20032;-43
2023/11/09 02:08:36;;;;;;;2.42;1.70;;;11.60;99.90;;;;;;5051950;28;20037;-45
2023/11/09 02:11:02;;;;;;;2.10;1.27;;;11.60;99.90;;;;;;5052208;28;20552;-44
2023/11/09 02:13:27;;;;;;;2.17;1.38;;;11.60;99.90;;;;;;5051601;28;20150;-44
2023/11/09 02:15:55;;;;;;;2.42;1.40;;;11.60;99.90;;;;;;5051962;28;20390;-43
2023/11/09 02:18:21;;;;;;;2.22;1.55;;;11.60;99.90;;;;;;5051646;28;20025;-43
2023/11/09 02:20:51;;;;;;;2.80;1.80;;;11.60;99.90;;;;;;5051374;28;20048;-45
2023/11/09 02:23:23;;;;;;;1.73;1.40;;;11.60;99.90;;;;;;5051641;28;20496;-43
2023/11/09 02:25:49;;;;;;;1.55;1.13;;;11.60;99.90;;;;;;5051617;28;20055;-44
2023/11/09 02:28:15;;;;;;;3.63;1.50;;;11.60;99.90;;;;;;5051395;28;20508;-45
2023/11/09 02:30:41;;;;;;;4.03;1.65;;;11.60;99.90;;;;;;5051348;28;20037;-43
2023/11/09 02:33:09;;;;;;;1.95;1.50;;;11.60;99.90;;;;;;5051284;28;20032;-43
2023/11/09 02:35:36;;;;;;;2.42;1.80;;;11.60;99.90;;;;;;5051050;28;20033;-44
2023/11/09 02:38:02;;;;;;;2.30;1.52;;;11.60;99.90;;;;;;5051169;28;20526;-43
2023/11/09 02:40:28;;;;;;;2.25;1.50;;;11.60;99.90;;;;;;5051081;28;20394;-43
2023/11/09 02:42:54;;;;;;;2.75;1.50;;;11.50;99.90;;;;;;5051496;28;20108;-47
2023/11/09 02:45:19;;;;;;;4.13;1.60;;;11.60;99.90;;;;;;5051159;28;20048;-43
2023/11/09 02:47:45;;;;;;;2.25;1.63;;;11.60;99.90;;;;;;5051618;28;20029;-44
2023/11/09 02:50:11;;;;;;;2.65;1.70;;;11.60;99.90;;;;;;5051924;28;20021;-43
2023/11/09 02:52:37;;;;;;;2.47;1.40;;;11.60;99.90;;;;;;5051368;28;20486;-44
2023/11/09 02:55:03;;;;;;;2.33;1.50;;;11.50;99.90;;;;;;5051043;28;20021;-44
2023/11/09 02:57:30;;;;;;;2.22;1.50;;;11.60;99.90;;;;;;5051158;28;20063;-44
2023/11/09 02:59:56;;;;;;;1.90;1.35;;;11.60;99.90;;;;;;5051282;28;20401;-45
2023/11/09 03:02:21;;;;;;;1.90;1.52;;;11.60;99.90;;;;;;5051358;28;20025;-46
2023/11/09 03:04:47;;;;;;;1.73;1.30;;;11.50;99.90;;;;;;5051224;28;20540;-44
2023/11/09 03:07:13;;;;;;;3.60;1.67;;;11.50;99.90;;;;;;5051060;28;20025;-44
2023/11/09 03:09:44;;;;;;;3.08;1.75;;;11.50;99.90;;;;;;5050959;28;20393;-47
2023/11/09 03:12:10;;;;;;;3.08;1.42;;;11.50;99.90;;;;;;5051328;28;20032;-44
2023/11/09 03:14:36;;;;;;;4.13;2.00;;;11.50;99.90;;;;;;5051004;28;20017;-45
2023/11/09 03:17:10;;;;;;;2.97;1.73;;;11.50;99.90;;;;;;5050497;28;20548;-44
2023/11/09 03:19:37;;;;;;;2.38;1.50;;;11.50;99.90;;;;;;5051575;28;20025;-44
2023/11/09 03:22:04;;;;;;;4.65;1.40;;;11.50;99.90;;;;;;5051139;28;20103;-44
2023/11/09 03:24:30;;;;;;;2.70;1.60;;;11.50;99.90;;;;;;5051404;28;20076;-46
2023/11/09 03:26:56;;;;;;;2.63;1.80;;;11.50;99.90;;;;;;5051011;28;20536;-44
2023/11/09 03:29:23;;;;;;;2.85;1.65;;;11.50;99.90;;;;;;5051311;28;20021;-44
2023/11/09 03:31:48;;;;;;;1.88;1.55;;;11.50;99.90;;;;;;5051141;28;20025;-43
2023/11/09 03:34:14;;;;;;;1.88;1.50;;;11.50;99.90;;;;;;5050718;28;20463;-44
2023/11/09 03:36:40;;;;;;;3.20;1.90;;;11.50;99.90;;;;;;5050526;28;20029;-44
2023/11/09 03:39:05;;;;;;;1.70;1.40;;;11.50;99.90;;;;;;5050961;28;20021;-47
2023/11/09 03:41:31;;;;;;;2.05;1.50;;;11.50;99.90;;;;;;5051004;28;20021;-43
2023/11/09 03:43:57;;;;;;;3.10;1.63;;;11.50;99.90;;;;;;5051228;28;20021;-43
2023/11/09 03:46:23;;;;;;;4.25;1.65;;;11.50;99.90;;;;;;5050347;28;20025;-44
2023/11/09 03:48:49;;;;;;;3.58;2.05;;;11.50;99.90;;;;;;5050996;28;20517;-44
2023/11/09 03:51:14;;;;;;;2.78;1.83;;;11.50;99.90;;;;;;5051090;28;20033;-45
2023/11/09 03:53:40;;;;;;;2.92;1.60;;;11.50;99.90;;;;;;5052182;28;20056;-43
2023/11/09 03:56:06;;;;;;;3.33;1.88;;;11.50;99.90;;;;;;5053988;28;20029;-43
2023/11/09 03:58:33;;;;;;;2.67;1.75;;;11.50;99.90;;;;;;5053821;28;20038;-45
2023/11/09 04:00:59;;;;;;;2.90;1.85;;;11.50;99.90;;;;;;5054089;28;20021;-44
2023/11/09 04:03:24;;;;;;;2.85;1.90;;;11.50;99.90;;;;;;5054839;28;20047;-45
2023/11/09 04:05:51;;;;;;;3.90;2.00;;;11.50;99.90;;;;;;5054524;28;20029;-44
2023/11/09 04:08:16;;;;;;;3.63;1.90;;;11.50;99.90;;;;;;5054631;28;20021;-45
2023/11/09 04:10:42;;;;;;;3.60;1.63;;;11.50;99.90;;;;;;5054275;28;20075;-43
2023/11/09 04:13:08;;;;;;;3.67;1.80;;;11.40;99.90;;;;;;5054227;28;20033;-45
2023/11/09 04:15:34;;;;;;;2.70;1.70;;;11.50;99.90;;;;;;5053795;28;20016;-45
2023/11/09 04:18:00;;;;;;;2.38;1.83;;;11.50;99.90;;;;;;5054618;28;20351;-45
2023/11/09 04:20:26;;;;;;;2.65;1.77;;;11.50;99.90;;;;;;5054682;28;20033;-44
2023/11/09 04:22:52;;;;;;;3.03;1.90;;;11.50;99.90;;;;;;5054868;28;20024;-44
2023/11/09 04:25:18;;;;;;;4.72;1.60;;;11.50;99.90;;;;;;5053460;28;20033;-43
2023/11/09 04:27:44;;;;;;;4.75;1.90;;;11.50;99.90;;;;;;5054026;28;20366;-43
2023/11/09 04:30:10;;;;;;;5.50;1.90;;;11.50;99.90;;;;;;5053968;28;20100;-43
2023/11/09 04:32:36;;;;;;;2.17;1.63;;;11.50;99.90;;;;;;5053603;28;20029;-43
2023/11/09 04:35:03;;;;;;;2.55;1.88;;;11.50;99.90;;;;;;5053434;28;20027;-44
2023/11/09 04:37:30;;;;;;;2.20;1.70;;;11.40;99.90;;;;;;5053355;28;20385;-46
2023/11/09 04:39:58;;;;;;;2.83;2.03;;;11.50;99.90;;;;;;5053350;28;20044;-45
2023/11/09 04:42:29;;;;;;;3.00;1.88;;;11.40;99.90;;;;;;5053643;28;20056;-43
2023/11/09 04:44:56;;;;;;;4.60;2.10;;;11.40;99.90;;;;;;5054106;28;20029;-43
2023/11/09 04:47:25;;;;;;;3.25;1.60;;;11.40;99.90;;;;;;5053253;28;20470;-43
2023/11/09 04:49:58;;;;;;;3.45;1.85;;;11.40;99.90;;;;;;5053341;28;20029;-45
2023/11/09 04:52:26;;;;;;;2.97;1.63;;;11.40;99.90;;;;;;5053411;28;20097;-45
2023/11/09 04:55:12;;;;;;;2.80;1.50;;;11.40;99.90;;;;;;5053326;28;20040;-44
2023/11/09 05:08:40;;;;;;;3.38;1.90;;;11.40;99.90;;;;;;5052659;28;20051;-44
2023/11/09 05:11:06;;;;;;;2.72;1.92;;;11.40;99.90;;;;;;5052964;28;20501;-44
2023/11/09 05:13:32;;;;;;;3.75;1.88;;;11.40;99.90;;;;;;5052782;28;20029;-48
2023/11/09 05:15:58;;;;;;;3.17;1.50;;;11.40;99.90;;;;;;5052419;28;20394;-43
2023/11/09 05:18:23;;;;;;;3.03;1.67;;;11.40;99.90;;;;;;5053372;28;20021;-43
2023/11/09 05:20:49;;;;;;;2.60;1.67;;;11.40;99.90;;;;;;5052717;28;20115;-43
2023/11/09 05:23:15;;;;;;;2.33;1.67;;;11.40;99.90;;;;;;5052702;28;20082;-46
2023/11/09 05:25:41;;;;;;;3.03;1.88;;;11.40;99.90;;;;;;5052314;28;20025;-45
2023/11/09 05:28:07;;;;;;;2.75;1.70;;;11.40;99.90;;;;;;5052087;28;20052;-44
2023/11/09 05:30:34;;;;;;;1.90;1.55;;;11.40;99.90;;;;;;5052241;28;20070;-43
2023/11/09 05:32:59;;;;;;;3.30;1.80;;;11.40;99.90;;;;;;5052447;28;20731;-43
2023/11/09 05:35:25;;;;;;;3.05;1.60;;;11.40;99.90;;;;;;5053346;28;20103;-43
2023/11/09 05:37:51;;;;;;;3.33;1.70;;;11.40;99.90;;;;;;5052081;28;20044;-44
2023/11/09 05:40:20;;;;;;;2.78;1.73;;;11.40;99.90;;;;;;5052664;28;20474;-44
2023/11/09 05:42:46;;;;;;;2.05;1.50;;;11.40;99.90;;;;;;5051997;28;20052;-44
2023/11/09 05:45:12;;;;;;;3.92;1.70;;;11.40;99.90;;;;;;5052800;28;20187;-43
2023/11/09 05:47:37;;;;;;;2.60;1.60;;;11.40;99.90;;;;;;5052523;28;20462;-45
2023/11/09 05:50:05;;;;;;;3.10;1.88;;;11.40;99.90;;;;;;5052488;28;20048;-44
2023/11/09 05:52:31;;;;;;;2.63;1.60;;;11.40;99.90;;;;;;5052148;28;20128;-43
2023/11/09 05:54:57;;;;;;;3.08;1.88;;;11.40;99.90;;;;;;5052707;28;20056;-43
2023/11/09 05:57:23;;;;;;;3.38;1.40;;;11.40;99.90;;;;;;5051610;28;20036;-45
2023/11/09 05:59:48;;;;;;;4.55;1.75;;;11.40;99.90;;;;;;5051520;28;20379;-45
2023/11/09 06:02:14;;;;;;;3.78;1.60;;;11.40;99.90;;;;;;5051825;28;20056;-43
2023/11/09 06:04:42;;;;;;;4.00;1.55;;;11.40;99.90;;;;;;5052020;28;20120;-44
2023/11/09 06:07:11;;;;;;;2.67;1.60;;;11.40;99.90;;;;;;5052368;28;20029;-43
2023/11/09 06:09:43;;;;;;;2.85;1.60;;;11.40;99.90;;;;;;5052034;28;20401;-45
2023/11/09 06:12:15;;;;;;;2.10;1.40;;;11.40;99.90;;;;;;5052407;28;20021;-44
2023/11/09 06:14:41;;;;;;;2.97;1.70;;;11.40;99.90;;;;;;5051883;28;20048;-44
2023/11/09 06:17:07;;;;;;;2.45;1.45;;;11.40;99.90;;;;;;5051010;28;20029;-44
2023/11/09 06:19:33;;;;;;;3.63;1.40;;;11.40;99.90;;;;;;5051715;28;20075;-45
2023/11/09 06:21:59;;;;;;;3.22;1.55;;;11.40;99.90;;;;;;5051865;28;20036;-45
2023/11/09 06:24:24;;;;;;;3.03;1.65;;;11.40;99.90;;;;;;5051831;28;20100;-47
2023/11/09 06:26:51;;;;;;;2.22;1.35;;;11.40;99.90;;;;;;5051179;28;20029;-44
2023/11/09 06:29:17;;;;;;;2.42;1.30;;;11.40;99.90;;;;;;5051574;28;20397;-44
2023/11/09 06:31:43;;;;;;;2.35;1.45;;;11.40;99.90;;;;;;5052038;28;20029;-44
2023/11/09 06:34:14;;;;;;;3.95;1.70;;;11.40;99.90;;;;;;5051262;28;20032;-44
2023/11/09 06:36:43;;;;;;;2.20;1.42;;;11.30;99.90;;;;;;5051677;28;20021;-43
2023/11/09 06:39:16;;;;;;;2.25;1.40;;;11.40;99.90;;;;;;5051082;28;20512;-43
2023/11/09 06:41:47;;;;;;;2.88;1.60;;;11.40;99.90;;;;;;5051260;28;20095;-45
2023/11/09 06:44:14;;;;;;;2.75;1.70;;;11.30;99.90;;;;;;5051574;28;20029;-43
2023/11/09 06:46:40;;;;;;;2.05;1.50;;;11.40;99.90;;;;;;5051495;28;20037;-43
2023/11/09 06:49:09;;;;;;;3.13;1.35;;;11.40;99.90;;;;;;5051156;28;20032;-43
2023/11/09 06:51:35;;;;;;;2.45;1.30;;;11.40;99.90;;;;;;5051068;28;20017;-43
2023/11/09 06:54:04;;;;;;;2.22;1.35;;;11.30;99.90;;;;;;5051672;28;20322;-47
2023/11/09 06:56:32;;;;;;;2.70;1.30;;;11.30;99.90;;;;;;5051385;28;20075;-44
2023/11/09 06:59:03;;;;;;;2.40;1.48;;;11.40;99.90;;;;;;5050921;28;20083;-46
2023/11/09 07:01:31;;;;;;;2.10;1.45;;;11.40;99.90;;;;;;5051011;28;20049;-43
2023/11/09 07:03:57;;;;;;;2.95;1.40;;;11.40;99.90;;;;;;5050982;28;20021;-43
2023/11/09 07:06:22;;;;;;;2.60;1.63;;;11.40;99.90;;;;;;5051688;28;20083;-46
2023/11/09 07:08:50;;;;;;;1.77;1.27;;;11.40;99.90;;;;;;5051044;28;20072;-43
2023/11/09 07:11:16;;;;;;;2.45;1.58;;;11.40;99.90;;;;;;5051758;28;20509;-46
2023/11/09 07:13:42;;;;;;;3.95;1.40;;;11.40;99.90;;;;;;5051029;28;20078;-43
2023/11/09 07:16:08;;;;;;;2.20;1.20;;;11.40;99.90;;;;;;5050989;28;20025;-43
2023/11/09 07:18:35;;;;;;;2.08;1.20;;;11.30;99.90;;;;;;5050663;28;20032;-43
2023/11/09 07:21:02;;;;;;;1.88;1.30;;;11.40;99.90;;;;;;5051217;28;20399;-45
2023/11/09 07:23:28;;;;;;;2.58;1.60;;;11.40;99.90;;;;;;5051350;28;20486;-43
2023/11/09 07:25:55;;;;;;;1.90;1.17;;;11.40;99.90;;;;;;5050952;28;20028;-44
2023/11/09 07:28:20;;;;;;;2.47;1.40;;;11.40;99.90;;;;;;5053411;28;20029;-43
2023/11/09 07:30:48;;;;;;;1.73;1.23;;;11.40;99.90;;;;;;5054589;28;20382;-43
2023/11/09 07:33:14;;;;;;;2.13;1.27;;;11.40;99.90;;;;;;5054623;28;20100;-43
2023/11/09 07:35:44;;;;;;;1.85;1.10;;;11.40;99.90;;;;;;5054505;28;20485;-44
2023/11/09 07:38:13;;;;;;;1.67;1.17;;;11.40;99.90;;;;;;5054824;28;20045;-48
2023/11/09 07:40:40;;;;;;;1.88;1.25;;;11.40;99.90;;;;;;5054717;28;20023;-43
2023/11/09 07:43:08;;;;;;;1.83;1.40;;;11.40;99.90;;;;;;5055698;28;20025;-45
2023/11/09 07:45:34;;;;;;;2.85;1.20;;;11.40;99.90;;;;;;5054845;28;20021;-44
2023/11/09 07:48:00;;;;;;;2.00;1.42;;;11.30;99.90;;;;;;5053988;28;20301;-43
2023/11/09 07:50:25;;;;;;;2.00;1.40;;;11.40;99.90;;;;;;5054942;28;20021;-43
2023/11/09 07:52:51;;;;;;;2.50;1.50;;;11.40;99.90;;;;;;5055082;28;20028;-44
2023/11/09 07:55:19;;;;;;;1.95;1.40;;;11.40;99.90;;;;;;5054536;28;20486;-46
2023/11/09 07:57:48;;;;;;;2.35;1.40;;;11.40;99.90;;;;;;5054769;28;20493;-43
2023/11/09 08:00:15;;;;;;;1.88;1.35;;;11.40;99.90;;;;;;5108248;23;20571;-38
2023/11/09 08:02:41;;;;;;;1.55;1.15;;;11.40;99.90;;;;;;5074059;28;20028;-39
2023/11/09 08:05:13;;;;;;;1.58;1.08;;;11.40;99.90;;;;;;5074273;28;20016;-38
2023/11/09 08:07:43;;;;;;;2.13;1.10;;;11.40;99.90;;;;;;5074148;28;20520;-38
2023/11/09 08:10:09;;;;;;;3.38;1.33;;;11.40;99.90;;;;;;5074010;28;20123;-38
2023/11/09 08:12:36;;;;;;;2.33;1.38;;;11.40;99.90;;;;;;5073987;28;20052;-38
2023/11/09 08:15:10;;;;;;;2.53;1.40;;;11.40;99.90;;;;;;5073789;28;20021;-38
2023/11/09 08:17:42;;;;;;;2.08;1.20;;;11.40;99.90;;;;;;5073829;28;20020;-38
2023/11/09 08:20:11;;;;;;;2.08;1.40;;;11.40;99.90;;;;;;5073808;28;20024;-38
2023/11/09 08:22:42;;;;;;;2.70;1.20;;;11.40;99.90;;;;;;5073842;28;20024;-38
2023/11/09 08:25:08;;;;;;;1.60;1.00;;;11.40;99.90;;;;;;5074137;28;20029;-38
2023/11/09 08:27:37;;;;;;;1.45;1.08;;;11.40;99.90;;;;;;5073508;28;20405;-38
2023/11/09 08:30:07;;;;;;;1.90;1.10;;;11.40;99.90;;;;;;5073758;28;20077;-40
2023/11/09 08:32:33;;;;;;;1.83;1.38;;;11.40;99.90;;;;;;5073889;28;20035;-39
2023/11/09 08:34:58;;;;;;;2.05;1.30;;;11.40;99.90;;;;;;5073527;28;20470;-39
2023/11/09 08:37:24;;;;;;;1.77;1.20;;;11.40;99.90;;;;;;5073418;28;20040;-38
2023/11/09 08:39:51;;;;;;;2.20;1.40;;;11.40;99.90;;;;;;5072642;28;20032;-38
2023/11/09 08:42:19;;;;;;;2.72;1.40;;;11.40;99.90;;;;;;5073325;28;20028;-38
2023/11/09 08:44:45;;;;;;;2.20;1.15;;;11.40;99.90;;;;;;5073336;28;20104;-38
2023/11/09 08:47:11;;;;;;;2.10;1.42;;;11.50;99.90;;;;;;5073240;28;20116;-37
2023/11/09 08:49:37;;;;;;;1.95;1.33;;;11.50;99.90;;;;;;5073020;28;20095;-38
2023/11/09 08:52:04;;;;;;;1.88;1.33;;;11.40;99.90;;;;;;5081401;28;20530;-38
2023/11/09 08:54:31;;;;;;;3.90;1.35;;;11.50;99.90;;;;;;5093189;28;20930;-38
2023/11/09 08:56:57;;;;;;;2.67;1.20;;;11.40;99.90;;;;;;5093062;28;20048;-38
2023/11/09 08:59:24;;;;;;;2.42;1.25;;;11.40;99.90;;;;;;5093314;28;20101;-37
2023/11/09 09:01:52;;;;;;;1.50;1.08;;;11.50;99.90;;;;;;5093224;28;20476;-38
2023/11/09 09:04:18;;;;;;;2.00;1.25;;;11.50;99.90;;;;;;5093311;28;20034;-40
2023/11/09 09:06:43;;;;;;;4.38;1.50;;;11.50;99.90;;;;;;5093078;28;20028;-38
2023/11/09 09:09:15;;;;;;;2.28;1.45;;;11.50;99.90;;;;;;5092710;28;20111;-38
2023/11/09 09:11:44;;;;;;;1.35;1.05;;;11.50;99.90;;;;;;5093359;28;20438;-38
2023/11/09 09:14:14;;;;;;;1.55;1.00;;;11.50;99.90;;;;;;5092863;28;20024;-38
2023/11/09 09:16:39;;;;;;;1.80;1.00;;;11.50;99.90;;;;;;5093185;28;20012;-38
2023/11/09 09:19:05;;;;;;;3.17;1.30;;;11.50;99.90;;;;;;5092242;28;20093;-38
2023/11/09 09:21:31;;;;;;;2.47;1.50;;;11.50;99.90;;;;;;5092744;28;20039;-38
2023/11/09 09:23:58;;;;;;;2.53;1.40;;;11.50;99.90;;;;;;5092672;28;20024;-38
2023/11/09 09:26:24;;;;;;;1.88;1.10;;;11.50;99.90;;;;;;5092651;28;20103;-38
2023/11/09 09:28:51;;;;;;;1.88;1.40;;;11.50;99.90;;;;;;5092618;28;20027;-38
2023/11/09 09:31:23;;;;;;;2.05;1.20;;;11.50;99.90;;;;;;5092785;28;20021;-38
2023/11/09 09:34:08;;;;;;;2.15;1.20;;;11.50;99.90;;;;;;5092645;28;20286;-38
2023/11/09 09:36:36;;;;;;;1.45;1.00;;;11.50;99.90;;;;;;5092495;28;20454;-42
2023/11/09 09:39:03;;;;;;;1.63;1.13;;;11.50;99.90;;;;;;5092466;28;20533;-38
2023/11/09 09:41:37;;;;;;;2.08;1.20;;;11.50;99.90;;;;;;5092492;28;20058;-38
2023/11/09 09:44:03;;;;;;;;;;;11.50;99.90;;;;;;5093349;28;20334;-38
2023/11/09 09:46:33;;;;;;;2.40;1.27;;;11.50;99.90;;;;;;5092223;28;20006;-39
2023/11/09 09:48:58;;;;;;;2.45;1.02;;;11.50;99.90;;;;;;5092074;28;20454;-38
2023/11/09 09:51:26;;;;;;;2.67;1.23;;;11.50;99.90;;;;;;5091574;28;20020;-38
2023/11/09 09:53:54;;;;;;;1.77;1.20;;;11.50;99.90;;;;;;5092265;28;20114;-38
2023/11/09 09:56:21;;;;;;;1.42;1.02;;;11.50;99.90;;;;;;5092145;28;20404;-38
2023/11/09 09:58:50;;;;;;;1.60;1.30;;;11.50;99.90;;;;;;5092065;28;20024;-38
2023/11/09 10:01:19;;;;;;;2.03;1.27;;;11.50;99.90;;;;;;5092094;28;20501;-38
2023/11/09 10:03:47;;;;;;;1.90;1.20;;;11.50;99.90;;;;;;5092278;28;20388;-38
2023/11/09 10:06:13;;;;;;;1.67;1.13;;;11.50;99.90;;;;;;5092020;28;20400;-37
2023/11/09 10:08:39;;;;;;;2.55;1.30;;;11.50;99.90;;;;;;5091679;28;20028;-39
2023/11/09 10:11:05;;;;;;;1.75;1.33;;;11.50;99.90;;;;;;5070684;28;20393;-39
2023/11/09 10:13:33;;;;;;;1.23;1.00;;;11.50;99.90;;;;;;5091988;28;20447;-37
2023/11/09 10:16:00;;;;;;;2.15;0.90;;;11.50;99.90;;;;;;5091838;28;20016;-38
2023/11/09 10:18:30;;;;;;;1.50;1.10;;;11.50;99.90;;;;;;5091602;28;20036;-38
2023/11/09 10:21:03;;;;;;;2.05;1.10;;;11.50;99.90;;;;;;5091691;28;20107;-38
2023/11/09 10:23:29;;;;;;;2.28;1.23;;;11.50;99.90;;;;;;5091963;28;20085;-37
2023/11/09 10:25:59;;;;;;;1.70;1.10;;;11.50;99.90;;;;;;5091727;28;20024;-38
2023/11/09 10:28:33;;;;;;;1.35;1.00;;;11.50;99.90;;;;;;5091360;28;20024;-37
2023/11/09 10:31:00;;;;;;;;;;;11.50;99.90;;;;;;5092083;28;20077;-38
2023/11/09 10:33:28;;;;;;;1.42;0.90;;;11.50;99.90;;;;;;5091684;28;19911;-37
2023/11/09 10:35:54;;;;;;;1.77;1.20;;;11.50;99.90;;;;;;5091560;28;20016;-37
2023/11/09 10:38:20;;;;;;;1.90;1.20;;;11.50;99.90;;;;;;5091802;28;20227;-38
2023/11/09 10:40:47;;;;;;;1.33;0.93;;;11.50;99.90;;;;;;5091805;28;20397;-38
2023/11/09 10:43:14;;;;;;;2.60;1.35;;;11.50;99.90;;;;;;5092096;28;20027;-38
2023/11/09 10:45:52;;;;;;;3.15;1.00;;;11.50;99.90;;;;;;5091898;28;20393;-38
2023/11/09 10:48:18;;;;;;;1.50;1.00;;;11.60;99.90;;;;;;5091725;28;20500;-38
2023/11/09 10:50:47;;;;;;;1.25;0.90;;;11.60;99.90;;;;;;5091679;28;20020;-39
2023/11/09 10:53:18;;;;;;;1.50;0.95;;;11.60;99.90;;;;;;5091648;28;20028;-39
2023/11/09 10:55:54;;;;;;;2.15;0.95;;;11.60;99.90;;;;;;5091803;28;20474;-40
2023/11/09 10:58:23;;;;;;;1.60;1.00;;;11.60;99.90;;;;;;5091374;28;20024;-38
2023/11/09 11:00:58;;;;;;;1.50;0.77;;;11.60;99.90;;;;;;5091308;28;20530;-37
2023/11/09 11:03:33;;;;;;;1.42;0.95;;;11.60;99.90;;;;;;5094559;28;20028;-38
2023/11/09 11:06:03;;;;;;;2.65;0.90;;;11.60;99.90;;;;;;5095437;28;20031;-38
2023/11/09 11:08:36;;;;;;;2.10;0.90;;;11.70;99.90;;;;;;5095626;28;20039;-37
2023/11/09 11:11:04;;;;;;;3.25;1.08;;;11.70;99.90;;;;;;5095908;28;20485;-38
2023/11/09 11:13:35;;;;;;;0.93;0.60;;;11.70;99.90;;;;;;5095544;28;20485;-38
2023/11/09 11:16:24;;;;;;;1.67;0.82;;;11.60;99.90;;;;;;5095645;28;20047;-38
2023/11/09 11:19:18;;;;;;;1.20;0.77;;;11.70;99.90;;;;;;5095064;28;20558;-38
2023/11/09 11:22:15;;;;;;;2.03;0.98;;;11.60;99.90;;;;;;5095209;28;20035;-38
2023/11/09 11:25:14;;;;;;;0.73;0.68;;;11.60;99.90;;;;;;5095046;28;20028;-37
2023/11/09 11:27:48;;;;;;;1.88;0.88;;;11.60;99.90;;;;;;5095559;28;20028;-38
2023/11/09 11:30:17;;;;;;;;;;;11.60;99.90;;;;;;5095583;28;20028;-39
2023/11/09 11:32:45;;;;;;;1.33;0.80;;;11.70;99.90;;;;;;5094917;28;20013;-39
2023/11/09 11:35:11;;;;;;;1.75;1.13;;;11.70;99.90;;;;;;5093543;28;20497;-37
2023/11/09 11:37:37;;;;;;;1.20;0.77;;;11.70;99.90;;;;;;5095157;28;20508;-37
2023/11/09 11:40:05;;;;;;;1.73;0.90;;;11.70;99.90;;;;;;5095412;28;20055;-38
2023/11/09 11:42:34;;;;;;;1.52;0.80;;;11.60;99.90;;;;;;5095227;28;20028;-37
2023/11/09 11:45:00;;;;;;;1.02;0.70;;;11.60;99.90;;;;;;5094857;28;20028;-38
2023/11/09 11:47:30;;;;;;;2.65;0.68;;;11.60;99.90;;;;;;5094826;28;20070;-38
2023/11/09 11:50:00;;;;;;;1.35;0.65;;;11.70;99.90;;;;;;5094857;28;20036;-37
2023/11/09 11:52:30;;;;;;;1.33;0.77;;;11.60;99.90;;;;;;5094589;28;20047;-38
2023/11/09 11:55:00;;;;;;;1.17;0.63;;;11.70;99.90;;;;;;5094511;28;20077;-38
2023/11/09 11:57:34;;;;;;;1.08;0.60;;;11.60;99.90;;;;;;5094856;28;20020;-38
2023/11/09 12:00:08;;;;;;;1.08;0.65;;;11.60;99.90;;;;;;5094227;28;20532;-38
2023/11/09 12:02:35;;;;;;;0.90;0.50;;;11.60;99.90;;;;;;5094451;28;20032;-37
2023/11/09 12:05:02;;;;;;;0.77;0.60;;;11.60;99.90;;;;;;5094816;28;20141;-39
2023/11/09 12:07:33;;;;;;;0.75;0.55;;;11.70;99.90;;;;;;5094343;28;20028;-39
2023/11/09 12:09:58;;;;;;;1.38;0.50;;;11.70;99.90;;;;;;5094498;28;20059;-41
2023/11/09 12:12:26;;;;;;;2.03;0.80;;;11.70;99.90;;;;;;5094304;28;20047;-37
2023/11/09 12:14:53;;;;;;;1.20;0.70;;;11.60;99.90;;;;;;5094000;28;20020;-38
2023/11/09 12:17:23;;;;;;;0.85;0.68;;;11.60;99.90;;;;;;5094696;28;20027;-38
2023/11/09 12:19:49;;;;;;;0.80;0.45;;;11.70;99.90;;;;;;5094337;28;20524;-38
2023/11/09 12:22:15;;;;;;;1.08;0.70;;;11.60;99.90;;;;;;5094364;28;20020;-39
2023/11/09 12:24:41;;;;;;;0.88;0.60;;;11.70;99.90;;;;;;5094301;28;20028;-40
2023/11/09 12:27:10;;;;;;;0.95;0.57;;;11.60;99.90;;;;;;5093833;28;20020;-40
2023/11/09 12:29:41;;;;;;;1.38;0.50;;;11.60;99.90;;;;;;5094020;28;20046;-39
2023/11/09 12:32:08;;;;;;;0.80;0.40;;;11.70;99.90;;;;;;5093905;28;20081;-40
2023/11/09 12:34:40;;;;;;;2.25;0.70;;;11.60;99.90;;;;;;5093693;28;20016;-39
2023/11/09 12:37:17;;;;;;;0.77;0.55;;;11.60;99.90;;;;;;5093534;28;20512;-39
2023/11/09 12:39:44;;;;;;;2.85;0.95;;;11.60;99.90;;;;;;5093484;28;20039;-40
2023/11/09 12:42:19;;;;;;;0.85;0.57;;;11.60;99.90;;;;;;5093527;28;20035;-40
2023/11/09 12:44:47;;;;;;;0.75;0.32;;;11.70;99.90;;;;;;5093486;28;20421;-40
2023/11/09 12:47:15;;;;;;;1.35;0.50;;;11.70;99.90;;;;;;5093615;28;20036;-40
2023/11/09 12:49:45;;;;;;;1.05;0.70;;;11.70;99.90;;;;;;5093216;28;20020;-39
2023/11/09 12:52:11;;;;;;;1.30;0.70;;;11.60;99.90;;;;;;5093217;28;20020;-39
2023/11/09 12:54:39;;;;;;;2.22;0.60;;;11.70;99.90;;;;;;5093455;28;20020;-39
2023/11/09 12:57:06;;;;;;;0.57;0.40;;;11.60;99.90;;;;;;5093091;28;20479;-39
2023/11/09 12:59:34;;;;;;;0.77;0.50;;;11.60;99.90;;;;;;5093019;28;20036;-40
2023/11/09 13:02:04;;;;;;;0.50;0.32;;;11.60;99.90;;;;;;5093182;28;20685;-39